M I D A S
Marine Information and Data Acquisition System
Tripno 419 of the Zeeleeuw from 2003-01-24 08:17:28 to 2003-01-24 12:49:23
Back to CruiseResearch ActivitiesStationsMapUnderway DataData graphs

EquipmentUnitsComment
TimeDGPSUTC
LatitudeDGPSDM.mWGS84
LongitudeDGPSDM.mWGS84
HeadingGyrodeg 
SOGDGPSknotsSpeed over ground
COGDGPSdegCourse over ground
DepthEcho soundermeters200 kHz
Missing or incorrect values are displayed as -999
Navigation data collected by the RV Zeeleeuw from 2003-01-24 08:17:28 to 2003-01-24 12:49:23
                                                                                    Next 1000 lines
Time Latitude Longitude Heading SOG COG Depth
2003-01-24 08:17:34 51°13.602 2°56.071 110.8 2.6 292.5 -999
2003-01-24 08:17:39 51°13.604 2°56.065 111 2.9 292.7 23.7
2003-01-24 08:17:44 51°13.606 2°56.058 111 3.1 292.2 23.3
2003-01-24 08:17:49 51°13.608 2°56.051 111 3.3 292.3 -999
2003-01-24 08:17:54 51°13.609 2°56.043 111.2 3.5 291.9 25.1
2003-01-24 08:17:59 51°13.611 2°56.036 111.3 3.7 292 28.3
2003-01-24 08:18:04 51°13.614 2°56.028 111.5 3.8 291.8 25.7
2003-01-24 08:18:09 51°13.616 2°56.019 111.8 4 291.7 -999
2003-01-24 08:18:13 51°13.617 2°56.013 112.2 4 291.8 25.1
2003-01-24 08:18:19 51°13.62 2°56.003 112.7 4 291.9 23.6
2003-01-24 08:18:23 51°13.621 2°55.996 113 4.1 292.1 24
2003-01-24 08:18:29 51°13.624 2°55.986 113.7 4.1 292.5 23
2003-01-24 08:18:33 51°13.626 2°55.979 114 4.2 292.8 27.2
2003-01-24 08:18:39 51°13.629 2°55.969 114.5 4.2 293.1 25.6
2003-01-24 08:18:43 51°13.631 2°55.962 114.7 4.3 293.3 26.5
2003-01-24 08:18:49 51°13.633 2°55.951 115.2 4.3 293.5 22.1
2003-01-24 08:18:53 51°13.635 2°55.944 115.7 4.4 293.9 26.1
2003-01-24 08:18:59 51°13.638 2°55.933 116.3 4.4 294.4 27.5
2003-01-24 08:19:03 51°13.641 2°55.926 116.7 4.4 295 28.3
2003-01-24 08:19:09 51°13.644 2°55.916 117.2 4.4 295.7 25.8
2003-01-24 08:19:14 51°13.647 2°55.907 117.7 4.4 296.2 27.9
2003-01-24 08:19:19 51°13.65 2°55.898 117.8 4.5 296.9 23
2003-01-24 08:19:23 51°13.652 2°55.89 117.7 4.6 297.2 24.7
2003-01-24 08:19:29 51°13.655 2°55.88 117.5 4.6 297.3 23
2003-01-24 08:19:32 51°13.657 2°55.875 117.2 4.5 297.2 24.3
2003-01-24 08:19:41 51°13.662 2°55.859 116.5 4.4 296.8 -999
2003-01-24 08:19:45 51°13.664 2°55.852 116 4.3 296.8 27.2
2003-01-24 08:19:51 51°13.667 2°55.842 115.5 4.3 296.5 26
2003-01-24 08:19:55 51°13.669 2°55.835 114.8 4.3 296.4 26.3
2003-01-24 08:20:01 51°13.672 2°55.825 114.2 4.4 296 23
2003-01-24 08:20:04 51°13.674 2°55.82 113.2 4.4 295.6 24.5
2003-01-24 08:20:11 51°13.677 2°55.808 112.3 4.3 295.1 -999
2003-01-24 08:20:16 51°13.68 2°55.8 111.7 4.1 294.6 26.3
2003-01-24 08:20:21 51°13.682 2°55.792 110.8 4 294 27.2
2003-01-24 08:20:26 51°13.684 2°55.784 110.2 3.8 293.9 23.8
2003-01-24 08:20:31 51°13.686 2°55.778 108.8 3.5 293.3 23
2003-01-24 08:20:35 51°13.687 2°55.773 107 3 292.6 25.6
2003-01-24 08:20:41 51°13.688 2°55.767 104.3 2.6 292.8 24
2003-01-24 08:20:45 51°13.689 2°55.764 102 2.2 292 11
2003-01-24 08:20:51 51°13.69 2°55.76 99.7 1.9 292.4 11
2003-01-24 08:20:55 51°13.69 2°55.757 96.3 1.5 291.8 11
2003-01-24 08:21:01 51°13.691 2°55.755 93.2 1.3 293.5 11.1
2003-01-24 08:21:04 51°13.692 2°55.754 89.7 1 297.7 11.1
2003-01-24 08:21:13 51°13.692 2°55.752 84.5 0.7 309.6 11.1
2003-01-24 08:21:17 51°13.693 2°55.752 80.7 0.5 335.6 27
2003-01-24 08:21:23 51°13.694 2°55.752 76 0.5 358 23.8
2003-01-24 08:21:29 51°13.695 2°55.753 71.3 0.6 21.7 28.8
2003-01-24 08:21:33 51°13.696 2°55.754 66.3 0.8 30.9 26.1
2003-01-24 08:21:38 51°13.697 2°55.755 60.8 1 33.5 -999
2003-01-24 08:21:43 51°13.698 2°55.757 55.5 1.1 33.8 11.1
2003-01-24 08:21:48 51°13.7 2°55.758 50 1.3 31.5 -999
2003-01-24 08:21:53 51°13.702 2°55.759 44.7 1.4 27.5 24.5
2003-01-24 08:21:58 51°13.704 2°55.761 38.8 1.5 24.7 26
2003-01-24 08:22:03 51°13.706 2°55.762 33.2 1.7 20.3 11.1
2003-01-24 08:22:08 51°13.709 2°55.763 27.3 1.9 15.3 23
2003-01-24 08:22:13 51°13.712 2°55.764 21.8 2 10.6 11.2
2003-01-24 08:22:18 51°13.715 2°55.764 15.8 2.1 6.3 11.2
2003-01-24 08:22:23 51°13.718 2°55.764 10.2 2.3 2.6 11.2
2003-01-24 08:22:28 51°13.722 2°55.763 4 2.4 358.9 10.8
2003-01-24 08:22:31 51°13.724 2°55.763 358.7 2.4 354.5 9.9
2003-01-24 08:22:37 51°13.727 2°55.761 355 2.4 348.8 9.6
2003-01-24 08:22:41 51°13.73 2°55.761 352 2.2 346.2 21.7
2003-01-24 08:22:47 51°13.732 2°55.759 348.5 1.6 342.6 24.2
2003-01-24 08:22:53 51°13.733 2°55.759 345.2 0.9 336 29
2003-01-24 08:22:58 51°13.732 2°55.758 343.2 0.3 318.1 -999
2003-01-24 08:23:03 51°13.731 2°55.758 341.8 0.2 204.3 24.4
2003-01-24 08:23:07 51°13.73 2°55.759 340.7 0.8 172.1 26.8
2003-01-24 08:23:13 51°13.728 2°55.76 339.7 1.3 167.5 23.8
2003-01-24 08:23:17 51°13.725 2°55.761 338.7 1.7 164.8 23.8
2003-01-24 08:23:23 51°13.722 2°55.762 337.5 1.9 163.9 23.3
2003-01-24 08:23:27 51°13.72 2°55.763 336.7 2 163.2 -999
2003-01-24 08:23:33 51°13.718 2°55.764 335.8 1.8 163.3 -999
2003-01-24 08:23:37 51°13.716 2°55.765 334.8 1.6 163.8 26.4
2003-01-24 08:23:43 51°13.714 2°55.766 333.3 1.3 166 27.6
2003-01-24 08:23:47 51°13.714 2°55.766 330.8 0.8 171.6 -999
2003-01-24 08:23:53 51°13.713 2°55.765 328.3 0.4 189.7 25.1
2003-01-24 08:23:58 51°13.713 2°55.765 326.3 0.2 235.4 24.2
2003-01-24 08:24:03 51°13.714 2°55.764 325 0.3 273.3 20.7
2003-01-24 08:24:08 51°13.714 2°55.762 324 0.4 294.1 23.8
2003-01-24 08:24:13 51°13.716 2°55.76 323.3 1 310.6 24.2
2003-01-24 08:24:17 51°13.717 2°55.758 323.2 1.5 315.2 25.6
2003-01-24 08:24:23 51°13.72 2°55.754 323.2 2 317 24.2
2003-01-24 08:24:27 51°13.723 2°55.75 323 2.7 318.5 -999
2003-01-24 08:24:33 51°13.727 2°55.744 323 3.2 319.1 29.9
2003-01-24 08:24:37 51°13.731 2°55.739 322.7 3.9 319.4 24.7
2003-01-24 08:24:41 51°13.735 2°55.734 321.8 4.4 319.2 -999
2003-01-24 08:24:48 51°13.742 2°55.724 321.5 4.8 318.4 9.9
2003-01-24 08:24:53 51°13.748 2°55.716 322 5.2 318.8 9.9
2003-01-24 08:24:57 51°13.753 2°55.71 323 5.6 319.1 9.7
2003-01-24 08:25:02 51°13.759 2°55.701 324.2 5.8 320.1 9.7
2003-01-24 08:25:07 51°13.766 2°55.693 325.2 6.1 321.5 -999
2003-01-24 08:25:13 51°13.775 2°55.683 326 6.3 322.7 9.9
2003-01-24 08:25:17 51°13.781 2°55.676 327.5 6.5 324.2 9.8
2003-01-24 08:25:22 51°13.788 2°55.668 329.5 6.6 325.9 9.7
2003-01-24 08:25:27 51°13.797 2°55.661 332.2 6.7 328.5 9.7
2003-01-24 08:25:32 51°13.805 2°55.654 334.3 6.8 330.7 9.6
2003-01-24 08:25:38 51°13.816 2°55.646 336.2 6.9 332.7 9.6
2003-01-24 08:25:43 51°13.824 2°55.639 337 7 334.3 9.5
2003-01-24 08:25:48 51°13.833 2°55.632 337 7 334.9 9.5
2003-01-24 08:25:53 51°13.842 2°55.626 337.2 7.1 335.3 9.5
2003-01-24 08:25:57 51°13.849 2°55.62 337.5 7.1 335.5 9.4
2003-01-24 08:26:03 51°13.86 2°55.612 337.5 7.1 335.6 9.3
2003-01-24 08:26:08 51°13.869 2°55.606 337.2 7.1 335.4 9.3
2003-01-24 08:26:13 51°13.878 2°55.599 337 7.1 335.3 9.3
2003-01-24 08:26:18 51°13.887 2°55.593 337.2 7.2 335.2 9.3
2003-01-24 08:26:23 51°13.896 2°55.586 337.3 7.2 335.3 9.3
2003-01-24 08:26:28 51°13.905 2°55.579 337 7.2 335.1 9.3
2003-01-24 08:26:33 51°13.913 2°55.572 336.7 7.1 334.7 9.3
2003-01-24 08:26:38 51°13.922 2°55.565 336.7 7.1 334.6 9.3
2003-01-24 08:26:43 51°13.931 2°55.558 336.8 7.2 334.7 9.3
2003-01-24 08:26:47 51°13.939 2°55.553 337.2 7.2 335.1 26.4
2003-01-24 08:26:53 51°13.949 2°55.545 337.8 7.2 335.6 9.3
2003-01-24 08:26:58 51°13.959 2°55.538 338.2 7.2 336 9.3
2003-01-24 08:27:03 51°13.968 2°55.532 337.7 7.2 336 9.3
2003-01-24 08:27:07 51°13.976 2°55.526 337.5 7.2 336 9.3
2003-01-24 08:27:13 51°13.987 2°55.518 337.5 7.2 336.3 9.3
2003-01-24 08:27:17 51°13.995 2°55.513 337.8 7.2 336.6 9.3
2003-01-24 08:27:23 51°14.006 2°55.505 337.8 7.2 336.9 9.3
2003-01-24 08:27:28 51°14.016 2°55.499 337.3 7.2 336.6 9.4
2003-01-24 08:27:33 51°14.025 2°55.493 337.2 7.2 336.3 9.4
2003-01-24 08:27:37 51°14.032 2°55.488 337.2 7.2 335.8 9.4
2003-01-24 08:27:43 51°14.043 2°55.481 337.2 7.2 335.7 9.4
2003-01-24 08:27:48 51°14.051 2°55.474 336.8 7.2 335.3 9.4
2003-01-24 08:27:53 51°14.06 2°55.468 336.7 7.2 335.1 9.3
2003-01-24 08:27:58 51°14.069 2°55.461 337 7.2 334.9 9.1
2003-01-24 08:28:03 51°14.077 2°55.454 337.3 7.2 335 9.2
2003-01-24 08:28:08 51°14.086 2°55.448 337.5 7.2 335.3 9.5
2003-01-24 08:28:13 51°14.095 2°55.441 337.2 7.2 335.3 9.8
2003-01-24 08:28:18 51°14.104 2°55.434 336.7 7.3 334.9 9.8
2003-01-24 08:28:23 51°14.113 2°55.427 336.3 7.3 334.8 9.9
2003-01-24 08:28:25 51°14.117 2°55.425 336.2 7.3 334.4 9.9
2003-01-24 08:28:33 51°14.131 2°55.413 335.7 7.3 334.1 9.9
2003-01-24 08:28:38 51°14.14 2°55.406 335.2 7.3 333.5 9.9
2003-01-24 08:28:43 51°14.149 2°55.399 334.5 7.3 333.4 9.9
2003-01-24 08:28:47 51°14.157 2°55.393 334.2 7.3 332.6 9.9
2003-01-24 08:28:53 51°14.168 2°55.383 333.5 7.3 332.2 9.9
2003-01-24 08:28:57 51°14.175 2°55.377 332.2 7.3 331 9.9
2003-01-24 08:29:03 51°14.185 2°55.367 331.2 7.3 330.2 9.5
2003-01-24 08:29:08 51°14.194 2°55.358 330.5 7.4 329.4 24.6
2003-01-24 08:29:13 51°14.203 2°55.35 330.2 7.4 328.5 9.5
2003-01-24 08:29:18 51°14.212 2°55.341 329.5 7.4 328.1 9.5
2003-01-24 08:29:23 51°14.22 2°55.332 328.7 7.4 327.4 9.4
2003-01-24 08:29:27 51°14.227 2°55.325 327.8 7.4 326.3 9.6
2003-01-24 08:29:33 51°14.237 2°55.314 327.2 7.4 325.5 9.7
2003-01-24 08:29:37 51°14.244 2°55.306 326 7.4 324.3 9.6
2003-01-24 08:29:43 51°14.253 2°55.294 325 7.4 323.6 9.5
2003-01-24 08:29:48 51°14.262 2°55.284 324 7.4 322.6 9.8
2003-01-24 08:29:53 51°14.27 2°55.274 323.5 7.4 321.5 9.4
2003-01-24 08:29:58 51°14.277 2°55.263 322.2 7.4 320.3 9.7
2003-01-24 08:30:03 51°14.285 2°55.252 320.3 7.4 319.5 10.1
2003-01-24 08:30:08 51°14.292 2°55.241 319 7.4 317.6 10.4
2003-01-24 08:30:13 51°14.299 2°55.23 318 7.4 316.7 -999
2003-01-24 08:30:18 51°14.306 2°55.218 316.5 7.4 315.7 -999
2003-01-24 08:30:23 51°14.313 2°55.206 313.8 7.3 313.8 10.1
2003-01-24 08:30:27 51°14.318 2°55.196 311.3 7.3 310.8 10.2
2003-01-24 08:30:33 51°14.326 2°55.18 309 7.3 308.5 -999
2003-01-24 08:30:37 51°14.33 2°55.17 307.2 7.3 306.5 -999
2003-01-24 08:30:43 51°14.337 2°55.154 305.8 7.3 305.3 10.1
2003-01-24 08:30:48 51°14.343 2°55.14 304.7 7.3 303.5 10.1
2003-01-24 08:30:53 51°14.348 2°55.126 303.8 7.4 302.1 9.4
2003-01-24 08:30:57 51°14.352 2°55.114 302.5 7.7 300.9 9.1
2003-01-24 08:31:03 51°14.359 2°55.095 301 8 299.7 9.6
2003-01-24 08:31:07 51°14.364 2°55.081 300 8.5 298.7 10
2003-01-24 08:31:13 51°14.371 2°55.06 300.2 8.9 298.1 10.1
2003-01-24 08:31:17 51°14.376 2°55.045 299.8 9.4 297.5 10
2003-01-24 08:31:23 51°14.383 2°55.021 298.8 9.8 297 9.7
2003-01-24 08:31:27 51°14.388 2°55.005 296.7 10.2 295 9.7
2003-01-24 08:31:33 51°14.395 2°54.979 294.3 10.3 294.3 10
2003-01-24 08:31:38 51°14.399 2°54.956 292.3 10.6 291.2 9.8
2003-01-24 08:31:43 51°14.404 2°54.933 290.5 10.8 289.2 9.8
2003-01-24 08:31:48 51°14.408 2°54.909 287.5 11.1 286.2 9.9
2003-01-24 08:31:53 51°14.411 2°54.884 284 11.5 282.1 9.8
2003-01-24 08:31:58 51°14.413 2°54.858 280 11.7 279.5 9.8
2003-01-24 08:32:03 51°14.413 2°54.831 276.2 11.9 276.5 9.8
2003-01-24 08:32:08 51°14.414 2°54.804 274.8 12.2 273.6 10
2003-01-24 08:32:12 51°14.415 2°54.782 275.3 12.4 273 9.4
2003-01-24 08:32:18 51°14.416 2°54.748 277 12.6 273.9 9.6
2003-01-24 08:32:23 51°14.418 2°54.72 277.5 12.7 274.9 9.7
2003-01-24 08:32:28 51°14.418 2°54.691 277.3 12.8 274.7 9.7
2003-01-24 08:32:33 51°14.42 2°54.663 278.2 12.8 275 9.6
2003-01-24 08:32:37 51°14.421 2°54.64 278.8 12.9 275.4 9.7
2003-01-24 08:32:43 51°14.424 2°54.606 277.5 12.9 275.9 9.7
2003-01-24 08:32:48 51°14.425 2°54.577 277 13 274.4 9.6
2003-01-24 08:32:53 51°14.427 2°54.548 277.8 13 274.8 9.5
2003-01-24 08:32:57 51°14.428 2°54.525 276.7 13 274.7 10
2003-01-24 08:33:03 51°14.43 2°54.491 276.2 13.1 274.4 9.9
2003-01-24 08:33:08 51°14.431 2°54.462 277.3 13.1 275.2 10.5
2003-01-24 08:33:13 51°14.433 2°54.433 277 13.1 275.1 10.3
2003-01-24 08:33:17 51°14.434 2°54.41 277.7 13.2 275.1 10.8
2003-01-24 08:33:23 51°14.436 2°54.375 278.2 13.2 275.6 10.3
2003-01-24 08:33:28 51°14.437 2°54.347 275.8 13 274 9.4
2003-01-24 08:33:33 51°14.436 2°54.319 271.5 12.9 270.4 9
2003-01-24 08:33:37 51°14.435 2°54.296 265.5 12.8 265.2 8.9
2003-01-24 08:33:43 51°14.43 2°54.264 259.5 12.7 260.9 8.9
2003-01-24 08:33:48 51°14.424 2°54.238 252.8 12.5 253.9 8.9
2003-01-24 08:33:53 51°14.417 2°54.213 248 12.4 248.9 8.8
2003-01-24 08:33:57 51°14.411 2°54.193 245.5 12.5 246.2 8.9
2003-01-24 08:34:03 51°14.402 2°54.163 243.5 12.5 244.7 8.9
2003-01-24 08:34:07 51°14.396 2°54.143 243.8 12.7 244.3 8.9
2003-01-24 08:34:13 51°14.387 2°54.112 244.7 12.7 244.9 8.9
2003-01-24 08:34:18 51°14.38 2°54.086 245.5 12.8 245.9 8.8
2003-01-24 08:34:23 51°14.373 2°54.061 245.3 12.7 245.8 8.8
2003-01-24 08:34:28 51°14.365 2°54.035 244.2 12.7 245.2 8.9
2003-01-24 08:34:33 51°14.358 2°54.009 244.7 12.8 244.8 8.8
2003-01-24 08:34:38 51°14.35 2°53.984 244 12.8 244.5 8.8
2003-01-24 08:34:43 51°14.342 2°53.959 243.7 12.8 244 8.8
2003-01-24 08:34:47 51°14.336 2°53.938 244.5 12.8 244.6 8.8
2003-01-24 08:34:53 51°14.327 2°53.907 245.7 12.8 245.1 8.9
2003-01-24 08:34:57 51°14.321 2°53.887 245.2 12.8 245.6 8.9
2003-01-24 08:35:03 51°14.312 2°53.856 245 12.9 244.9 8.9
2003-01-24 08:35:08 51°14.304 2°53.83 245.2 12.9 245 8.9
2003-01-24 08:35:13 51°14.296 2°53.804 243.8 12.9 244 8.9
2003-01-24 08:35:18 51°14.288 2°53.779 243.7 12.9 244.1 8.9
2003-01-24 08:35:23 51°14.28 2°53.753 243.2 12.9 243.5 9
2003-01-24 08:35:28 51°14.271 2°53.728 243 12.9 242.7 8.9
2003-01-24 08:35:33 51°14.264 2°53.702 242.7 12.9 243.3 8.9
2003-01-24 08:35:38 51°14.254 2°53.677 242.3 13 241.9 8.9
2003-01-24 08:35:43 51°14.247 2°53.651 243.2 13 243.6 8.9
2003-01-24 08:35:48 51°14.238 2°53.625 242.7 13 242.9 9
2003-01-24 08:35:53 51°14.23 2°53.6 243.3 13 243.1 8.9
2003-01-24 08:35:58 51°14.223 2°53.574 243.5 13 243.8 8.9
2003-01-24 08:36:03 51°14.214 2°53.548 243.7 13.1 242.8 9
2003-01-24 08:36:07 51°14.208 2°53.527 244.2 13.1 244.3 9
2003-01-24 08:36:12 51°14.199 2°53.501 243.3 13.2 243.6 9
2003-01-24 08:36:18 51°14.19 2°53.469 243.5 13.2 243.5 9.1
2003-01-24 08:36:23 51°14.181 2°53.443 243.3 13.3 243.2 9.1
2003-01-24 08:36:28 51°14.173 2°53.416 244.7 13.4 244.2 9.1
2003-01-24 08:36:33 51°14.165 2°53.39 244.5 13.3 244 9.2
2003-01-24 08:36:37 51°14.159 2°53.369 244.2 13.3 244 9.2
2003-01-24 08:36:43 51°14.149 2°53.336 244.5 13.5 244.4 9.2
2003-01-24 08:36:48 51°14.141 2°53.31 244.2 13.4 244.4 9.3
2003-01-24 08:36:53 51°14.133 2°53.283 243.5 13.5 243.7 9.4
2003-01-24 08:36:57 51°14.126 2°53.262 243.7 13.4 243.5 9.4
2003-01-24 08:37:03 51°14.115 2°53.23 242.7 13.4 242.9 9.3
2003-01-24 08:37:07 51°14.108 2°53.209 242.5 13.5 242.4 9.3
2003-01-24 08:37:13 51°14.098 2°53.177 243.8 13.5 243.1 9.3
2003-01-24 08:37:18 51°14.089 2°53.151 241.7 13.5 241.7 9.3
2003-01-24 08:37:23 51°14.081 2°53.124 242.8 13.6 242.3 9.4
2003-01-24 08:37:28 51°14.072 2°53.098 242.2 13.5 242.1 9.4
2003-01-24 08:37:33 51°14.064 2°53.071 242.2 13.5 242 9.4
2003-01-24 08:37:38 51°14.055 2°53.045 243.2 13.6 242.6 9.5
2003-01-24 08:37:43 51°14.046 2°53.019 242.5 13.6 242.8 9.6
2003-01-24 08:37:48 51°14.038 2°52.992 242.8 13.5 242.9 9.6
2003-01-24 08:37:53 51°14.028 2°52.965 242.3 13.6 242.4 9.7
2003-01-24 08:37:57 51°14.022 2°52.944 243.3 13.6 242.8 9.7
2003-01-24 08:38:02 51°14.013 2°52.917 242.5 13.5 243 9.7
2003-01-24 08:38:08 51°14.003 2°52.885 242.8 13.6 243 9.7
2003-01-24 08:38:13 51°13.994 2°52.858 243.2 13.6 243 9.8
2003-01-24 08:38:18 51°13.986 2°52.831 244 13.6 243.6 9.8
2003-01-24 08:38:23 51°13.977 2°52.805 243.5 13.5 243.3 9.9
2003-01-24 08:38:28 51°13.969 2°52.778 243.3 13.6 243.6 9.8
2003-01-24 08:38:33 51°13.961 2°52.751 243.8 13.6 243.7 9.9
2003-01-24 08:38:37 51°13.954 2°52.729 243.3 13.6 243.7 9.9
2003-01-24 08:38:43 51°13.944 2°52.697 243.2 13.7 243.3 10
2003-01-24 08:38:47 51°13.937 2°52.675 244.3 13.6 243.9 10
2003-01-24 08:38:53 51°13.927 2°52.644 242.2 13.4 242.9 9.9
2003-01-24 08:38:57 51°13.92 2°52.623 242.3 13.6 242.8 9.9
2003-01-24 08:39:03 51°13.91 2°52.59 244.5 13.7 243.6 10
2003-01-24 08:39:08 51°13.902 2°52.563 243.5 13.5 244 10
2003-01-24 08:39:13 51°13.893 2°52.537 242.2 13.5 242.6 10
2003-01-24 08:39:17 51°13.886 2°52.516 242.2 13.6 242.4 10.1
2003-01-24 08:39:23 51°13.875 2°52.484 241.7 13.6 241.6 10
2003-01-24 08:39:27 51°13.869 2°52.463 241.3 13.6 241.8 10
2003-01-24 08:39:33 51°13.857 2°52.431 241.5 13.6 241.1 10.1
2003-01-24 08:39:37 51°13.85 2°52.41 241 13.7 241.5 10.1
2003-01-24 08:39:43 51°13.839 2°52.378 241.5 13.7 241.2 10.1
2003-01-24 08:39:48 51°13.83 2°52.352 241.3 13.8 241.3 10.1
2003-01-24 08:39:53 51°13.821 2°52.324 241.3 13.8 241.5 10.1
2003-01-24 08:39:57 51°13.813 2°52.303 240.3 13.8 240.9 10
2003-01-24 08:40:03 51°13.801 2°52.271 240.2 14 240 10.1
2003-01-24 08:40:08 51°13.793 2°52.243 242 14.1 241 10.1
2003-01-24 08:40:13 51°13.782 2°52.218 239.3 13.9 239.5 10
2003-01-24 08:40:17 51°13.776 2°52.195 241.7 14.1 241.5 10
2003-01-24 08:40:23 51°13.764 2°52.163 240.5 14.1 240.7 10
2003-01-24 08:40:28 51°13.755 2°52.135 241.2 14.1 241.3 10.1
2003-01-24 08:40:33 51°13.745 2°52.108 240.8 14.1 241 10.1
2003-01-24 08:40:37 51°13.737 2°52.086 241.2 14.2 241.1 10.1
2003-01-24 08:40:41 51°13.73 2°52.064 242.5 14.2 241.9 10.2
2003-01-24 08:40:47 51°13.719 2°52.032 241.2 14 241.8 10.1
2003-01-24 08:40:53 51°13.708 2°51.998 241.8 14.2 241.5 10.1
2003-01-24 08:40:58 51°13.699 2°51.97 242.8 14.2 242.7 10.1
2003-01-24 08:41:03 51°13.69 2°51.943 241.5 14.2 241.9 10.1
2003-01-24 08:41:08 51°13.681 2°51.915 242.8 14.2 242.6 10.1
2003-01-24 08:41:13 51°13.672 2°51.886 243.2 14.2 243.1 10.2
2003-01-24 08:41:17 51°13.665 2°51.864 242.8 14.2 242.6 10.2
2003-01-24 08:41:23 51°13.655 2°51.83 243.2 14.3 243.3 10.2
2003-01-24 08:41:28 51°13.645 2°51.802 243.5 14.3 243.1 10.1
2003-01-24 08:41:33 51°13.636 2°51.774 243.7 14.3 243.3 10.2
2003-01-24 08:41:38 51°13.628 2°51.745 244.2 14.3 244.1 10.2
2003-01-24 08:41:41 51°13.623 2°51.728 244.3 14.3 244.1 10.2
2003-01-24 08:41:48 51°13.611 2°51.689 244.2 14.3 244 10.2
2003-01-24 08:41:53 51°13.601 2°51.66 243.5 14.3 243.3 10.3
2003-01-24 08:41:57 51°13.594 2°51.637 243.7 14.3 243.4 10.3
2003-01-24 08:42:03 51°13.584 2°51.604 243.2 14.2 243.5 10.3
2003-01-24 08:42:08 51°13.574 2°51.576 241.3 14.2 242.1 10.2
2003-01-24 08:42:13 51°13.566 2°51.547 243.3 14.4 243.2 10.3
2003-01-24 08:42:17 51°13.558 2°51.525 243 14.3 243 10.3
2003-01-24 08:42:23 51°13.548 2°51.491 243 14.3 243.5 10.2
2003-01-24 08:42:28 51°13.539 2°51.462 244.2 14.3 244.1 10.3
2003-01-24 08:42:33 51°13.531 2°51.434 244.7 14.3 244.6 10.4
2003-01-24 08:42:37 51°13.524 2°51.411 244.8 14.3 245.1 10.4
2003-01-24 08:42:43 51°13.514 2°51.377 245.3 14.3 245.1 10.4
2003-01-24 08:42:48 51°13.506 2°51.347 246.2 14.4 245.8 10.4
2003-01-24 08:42:53 51°13.498 2°51.318 245.7 14.3 246 10.4
2003-01-24 08:42:57 51°13.491 2°51.295 245.2 14.4 245.3 10.4
2003-01-24 08:43:03 51°13.481 2°51.261 245.7 14.4 245.5 10.5
2003-01-24 08:43:08 51°13.472 2°51.233 244 14.3 244.3 10.4
2003-01-24 08:43:13 51°13.464 2°51.203 245.2 14.4 245.4 10.3
2003-01-24 08:43:17 51°13.457 2°51.18 245 14.5 244.9 10.5
2003-01-24 08:43:23 51°13.447 2°51.145 245.2 14.4 245.7 10.5
2003-01-24 08:43:28 51°13.439 2°51.117 244.5 14.3 244.8 10.4
2003-01-24 08:43:33 51°13.43 2°51.088 244.8 14.4 244.7 10.5
2003-01-24 08:43:38 51°13.422 2°51.059 244.3 14.5 244.3 10.5
2003-01-24 08:43:43 51°13.413 2°51.03 244.8 14.4 244.7 10.6
2003-01-24 08:43:48 51°13.404 2°51.002 242.5 14.3 243.6 10.5
2003-01-24 08:43:53 51°13.396 2°50.973 243.7 14.4 244 10.6
2003-01-24 08:43:58 51°13.386 2°50.945 243.3 14.5 243.3 10.6
2003-01-24 08:44:03 51°13.378 2°50.916 243.7 14.5 243.9 10.6
2003-01-24 08:44:08 51°13.369 2°50.888 243.8 14.4 244.1 10.5
2003-01-24 08:44:13 51°13.361 2°50.859 243.7 14.4 244.2 10.5
2003-01-24 08:44:17 51°13.353 2°50.836 245 14.5 244.7 10.6
2003-01-24 08:44:23 51°13.344 2°50.801 244.7 14.4 245.3 10.5
2003-01-24 08:44:28 51°13.335 2°50.772 244.5 14.4 244.9 10.5
2003-01-24 08:44:33 51°13.326 2°50.743 245 14.5 244.8 10.6
2003-01-24 08:44:38 51°13.318 2°50.714 245.3 14.6 245.1 10.6
2003-01-24 08:44:43 51°13.31 2°50.685 244.7 14.5 245.1 10.5
2003-01-24 08:44:48 51°13.301 2°50.656 245 14.5 244.8 10.6
2003-01-24 08:44:53 51°13.293 2°50.627 244.7 14.5 244.7 10.6
2003-01-24 08:44:58 51°13.284 2°50.598 244.2 14.6 244.2 10.5
2003-01-24 08:45:03 51°13.275 2°50.569 245 14.6 244.7 10.6
2003-01-24 08:45:07 51°13.269 2°50.546 243.8 14.4 244.2 10.6
2003-01-24 08:45:13 51°13.258 2°50.511 244.3 14.4 244.2 10.5
2003-01-24 08:45:18 51°13.25 2°50.482 244.8 14.5 244.4 10.6
2003-01-24 08:45:23 51°13.24 2°50.454 243.8 14.6 243.8 10.5
2003-01-24 08:45:28 51°13.233 2°50.424 245 14.6 244.8 10.6
2003-01-24 08:45:33 51°13.223 2°50.396 244 14.5 243.9 10.6
2003-01-24 08:45:38 51°13.215 2°50.367 243.3 14.5 243.5 10.6
2003-01-24 08:45:43 51°13.205 2°50.339 242.7 14.5 243.1 10.6
2003-01-24 08:45:47 51°13.197 2°50.316 242.5 14.6 242.6 10.6
2003-01-24 08:45:53 51°13.186 2°50.282 241.7 14.5 242 10.5
2003-01-24 08:45:57 51°13.179 2°50.259 241 14.4 241.7 10.6
2003-01-24 08:46:03 51°13.166 2°50.226 240.2 14.4 241.6 10.6
2003-01-24 08:46:07 51°13.159 2°50.203 240.2 14.6 241 10.6
2003-01-24 08:46:13 51°13.147 2°50.17 240.5 14.6 240.6 10.7
2003-01-24 08:46:18 51°13.137 2°50.142 239.5 14.6 240.2 10.7
2003-01-24 08:46:23 51°13.127 2°50.114 239.5 14.6 239.7 10.7
2003-01-24 08:46:28 51°13.117 2°50.087 240 14.6 240 10.8
2003-01-24 08:46:33 51°13.107 2°50.059 239.2 14.5 239.9 10.8
2003-01-24 08:46:37 51°13.098 2°50.037 239.3 14.5 239.4 10.8
2003-01-24 08:46:43 51°13.086 2°50.004 238.2 14.4 239.5 10.8
2003-01-24 08:46:48 51°13.075 2°49.977 237.2 14.5 238.2 10.8
2003-01-24 08:46:53 51°13.064 2°49.949 238.3 14.6 238.6 10.8
2003-01-24 08:46:57 51°13.056 2°49.927 238.8 14.6 239.1 10.9
2003-01-24 08:47:03 51°13.044 2°49.894 238.5 14.5 239.5 10.8
2003-01-24 08:47:07 51°13.036 2°49.872 238.8 14.6 239.6 10.8
2003-01-24 08:47:13 51°13.023 2°49.838 240 14.7 239.7 10.9
2003-01-24 08:47:17 51°13.015 2°49.816 240.5 14.6 240.7 10.9
2003-01-24 08:47:23 51°13.002 2°49.783 239 14.5 240 10.9
2003-01-24 08:47:28 51°12.992 2°49.755 240 14.6 240 10.9
2003-01-24 08:47:33 51°12.983 2°49.727 240.3 14.6 240.8 10.9
2003-01-24 08:47:37 51°12.974 2°49.705 238.3 14.6 239.2 10.9
2003-01-24 08:47:43 51°12.963 2°49.671 240.5 14.6 239.8 11
2003-01-24 08:47:47 51°12.954 2°49.65 238.3 14.4 239.1 10.9
2003-01-24 08:47:53 51°12.941 2°49.616 239.2 14.6 239.7 10.9
2003-01-24 08:47:58 51°12.931 2°49.588 240.3 14.6 240.2 11
2003-01-24 08:48:03 51°12.921 2°49.56 239.3 14.5 239.5 11
2003-01-24 08:48:07 51°12.914 2°49.538 240.5 14.4 240.5 11
2003-01-24 08:48:13 51°12.901 2°49.505 239.7 14.5 240.2 11
2003-01-24 08:48:17 51°12.893 2°49.483 239.3 14.5 239.7 11
2003-01-24 08:48:23 51°12.881 2°49.449 239 14.5 239.8 11
2003-01-24 08:48:27 51°12.872 2°49.427 238.7 14.6 239 11
2003-01-24 08:48:33 51°12.861 2°49.393 240.3 14.6 240.2 11
2003-01-24 08:48:38 51°12.85 2°49.367 238.8 14.4 239.4 11
2003-01-24 08:48:43 51°12.841 2°49.338 239.7 14.4 240.4 11
2003-01-24 08:48:48 51°12.83 2°49.311 238.8 14.6 238.8 11
2003-01-24 08:48:53 51°12.821 2°49.282 240.2 14.7 239.2 11
2003-01-24 08:48:58 51°12.81 2°49.256 238.3 14.5 238.8 11
2003-01-24 08:49:03 51°12.801 2°49.227 239.8 14.5 240.4 11
2003-01-24 08:49:07 51°12.792 2°49.206 238.8 14.5 239.3 11
2003-01-24 08:49:12 51°12.782 2°49.177 239.7 14.6 240 11.1
2003-01-24 08:49:18 51°12.77 2°49.144 239.8 14.7 239.9 11.1
2003-01-24 08:49:23 51°12.76 2°49.116 239.5 14.6 240.3 11.1
2003-01-24 08:49:28 51°12.749 2°49.089 238.5 14.6 239.6 11
2003-01-24 08:49:33 51°12.739 2°49.06 240.2 14.7 240 11.1
2003-01-24 08:49:37 51°12.731 2°49.038 239.3 14.7 239.9 11.1
2003-01-24 08:49:43 51°12.719 2°49.005 239.2 14.6 240 11.1
2003-01-24 08:49:48 51°12.709 2°48.977 239.2 14.6 239.6 11.1
2003-01-24 08:49:53 51°12.698 2°48.949 239.2 14.7 239.7 11.1
2003-01-24 08:49:58 51°12.688 2°48.921 238.3 14.6 239.1 11.2
2003-01-24 08:50:03 51°12.678 2°48.893 239 14.6 239.4 11.2
2003-01-24 08:50:06 51°12.671 2°48.877 237.8 14.5 238.4 11.1
2003-01-24 08:50:13 51°12.656 2°48.839 238.7 14.7 239.2 11.2
2003-01-24 08:50:17 51°12.648 2°48.816 240 14.7 240.3 11.2
2003-01-24 08:50:23 51°12.636 2°48.783 239 14.5 240 11.2
2003-01-24 08:50:28 51°12.627 2°48.755 239.7 14.5 240.4 11.2
2003-01-24 08:50:33 51°12.616 2°48.726 240 14.6 240.3 11.2
2003-01-24 08:50:37 51°12.608 2°48.703 241 14.8 240.9 11.3
2003-01-24 08:50:43 51°12.597 2°48.67 241 14.6 241.4 11.3
2003-01-24 08:50:48 51°12.587 2°48.642 239.7 14.5 240.6 11.2
2003-01-24 08:50:53 51°12.577 2°48.613 240.2 14.8 240.5 11.2
2003-01-24 08:50:58 51°12.567 2°48.584 241.3 14.9 241.4 11.3
2003-01-24 08:51:03 51°12.557 2°48.557 240 14.7 240.5 11.3
2003-01-24 08:51:07 51°12.55 2°48.535 239 14.4 239.9 11.3
2003-01-24 08:51:13 51°12.536 2°48.501 237.5 14.6 238.3 11.3
2003-01-24 08:51:18 51°12.526 2°48.474 238.7 14.8 238.8 11.4
2003-01-24 08:51:23 51°12.515 2°48.447 237.2 14.7 238 11.4
2003-01-24 08:51:28 51°12.504 2°48.42 237.2 14.5 237.7 11.4
2003-01-24 08:51:33 51°12.493 2°48.392 236.7 14.6 237.4 11.4
2003-01-24 08:51:38 51°12.482 2°48.365 236.7 14.7 237.5 11.4
2003-01-24 08:51:43 51°12.471 2°48.337 236.5 14.7 237 11.4
2003-01-24 08:51:48 51°12.461 2°48.31 237.3 14.6 237.8 11.4
2003-01-24 08:51:53 51°12.45 2°48.282 237.2 14.6 237.9 11.3
2003-01-24 08:51:58 51°12.439 2°48.255 237.8 14.7 238.2 11.3
2003-01-24 08:52:03 51°12.429 2°48.228 237.7 14.6 238.3 11.4
2003-01-24 08:52:07 51°12.42 2°48.207 235.8 14.5 237 11.4
2003-01-24 08:52:13 51°12.407 2°48.174 236.8 14.7 237.7 11.3
2003-01-24 08:52:17 51°12.397 2°48.152 237.5 14.8 237.5 11.4
2003-01-24 08:52:23 51°12.384 2°48.119 236.8 14.7 238.3 11.5
2003-01-24 08:52:28 51°12.374 2°48.092 236.7 14.5 237.5 11.4
2003-01-24 08:52:33 51°12.362 2°48.065 236.2 14.7 237 11.4
2003-01-24 08:52:38 51°12.352 2°48.036 238 14.8 237.9 11.5
2003-01-24 08:52:43 51°12.341 2°48.01 236.8 14.7 237.7 11.5
2003-01-24 08:52:47 51°12.333 2°47.987 237.2 14.6 238.2 11.5
2003-01-24 08:52:53 51°12.319 2°47.955 236.8 14.6 237.3 11.5
2003-01-24 08:52:57 51°12.311 2°47.933 237.2 14.6 238 11.5
2003-01-24 08:53:03 51°12.298 2°47.901 237.8 14.6 238.2 11.4
2003-01-24 08:53:08 51°12.288 2°47.873 238 14.7 238.6 11.5
2003-01-24 08:53:13 51°12.277 2°47.845 238.8 14.7 238.7 11.5
2003-01-24 08:53:17 51°12.269 2°47.823 238.2 14.5 239 11.5
2003-01-24 08:53:23 51°12.256 2°47.791 237.2 14.4 238.1 11.5
2003-01-24 08:53:27 51°12.248 2°47.769 238.2 14.6 238.6 11.5
2003-01-24 08:53:33 51°12.235 2°47.736 237.7 14.6 238.6 11.5
2003-01-24 08:53:38 51°12.224 2°47.708 238 14.7 238.2 11.5
2003-01-24 08:53:43 51°12.214 2°47.68 239.2 14.6 239.3 11.6
2003-01-24 08:53:48 51°12.203 2°47.654 237.3 14.5 238.6 11.5
2003-01-24 08:53:53 51°12.193 2°47.625 238.2 14.6 238 11.5
2003-01-24 08:53:58 51°12.182 2°47.597 238.5 14.8 239.1 11.5
2003-01-24 08:54:03 51°12.172 2°47.569 238.2 14.8 238.3 11.5
2003-01-24 08:54:08 51°12.16 2°47.542 237.8 14.6 238.1 11.6
2003-01-24 08:54:13 51°12.15 2°47.514 237.3 14.6 238.2 11.5
2003-01-24 08:54:17 51°12.141 2°47.492 238 14.7 238.3 11.5
2003-01-24 08:54:23 51°12.129 2°47.459 238 14.8 238.2 11.5
2003-01-24 08:54:28 51°12.118 2°47.431 238.5 14.7 238.9 11.5
2003-01-24 08:54:33 51°12.108 2°47.403 238 14.6 238.8 11.6
2003-01-24 08:54:37 51°12.099 2°47.381 238 14.7 238.2 11.5
2003-01-24 08:54:43 51°12.086 2°47.347 238.7 14.8 239.1 11.5
2003-01-24 08:54:48 51°12.075 2°47.32 238 14.8 239 11.5
2003-01-24 08:54:53 51°12.065 2°47.292 238.8 14.7 239.1 11.7
2003-01-24 08:54:58 51°12.054 2°47.265 237.5 14.6 238.6 11.6
2003-01-24 08:55:03 51°12.044 2°47.237 237.2 14.6 238.1 11.5
2003-01-24 08:55:08 51°12.033 2°47.209 238.2 14.9 238.2 11.5
2003-01-24 08:55:13 51°12.022 2°47.181 237.5 14.8 237.9 11.6
2003-01-24 08:55:17 51°12.013 2°47.159 237.2 14.7 238 11.6
2003-01-24 08:55:23 51°12 2°47.126 237.7 14.7 238.1 11.5
2003-01-24 08:55:28 51°11.99 2°47.098 238.8 14.8 238.6 11.6
2003-01-24 08:55:33 51°11.979 2°47.071 237.8 14.7 238.3 11.5
2003-01-24 08:55:37 51°11.97 2°47.048 238.7 14.7 239 11.6
2003-01-24 08:55:43 51°11.957 2°47.015 238.2 14.7 238.7 11.5
2003-01-24 08:55:48 51°11.947 2°46.987 237.7 14.7 238.5 11.5
2003-01-24 08:55:53 51°11.936 2°46.959 237.8 14.8 238.2 11.5
2003-01-24 08:55:57 51°11.927 2°46.937 238.3 14.8 238.6 11.5
2003-01-24 08:56:02 51°11.917 2°46.91 237.5 14.7 238.3 11.5
2003-01-24 08:56:08 51°11.904 2°46.877 238 14.6 238 11.4
2003-01-24 08:56:13 51°11.893 2°46.85 237.3 14.6 237.8 11.5
2003-01-24 08:56:17 51°11.885 2°46.827 238 14.7 238.4 11.5
2003-01-24 08:56:23 51°11.872 2°46.795 237.2 14.6 238 11.4
2003-01-24 08:56:28 51°11.861 2°46.767 237.3 14.6 238 11.3
2003-01-24 08:56:33 51°11.85 2°46.74 237.5 14.7 237.6 11.3
2003-01-24 08:56:38 51°11.839 2°46.712 237.7 14.7 237.9 11.4
2003-01-24 08:56:43 51°11.828 2°46.686 237.7 14.6 237.8 11.4
2003-01-24 08:56:48 51°11.818 2°46.658 237 14.5 237.8 11.3
2003-01-24 08:56:53 51°11.806 2°46.631 237 14.6 237.3 11.3
2003-01-24 08:56:58 51°11.796 2°46.603 238 14.7 238.2 11.4
2003-01-24 08:57:03 51°11.784 2°46.577 236.5 14.6 237.2 11.3
2003-01-24 08:57:07 51°11.776 2°46.554 237 14.6 237.6 11.3
2003-01-24 08:57:13 51°11.763 2°46.521 237.5 14.7 237.7 11.3
2003-01-24 08:57:17 51°11.754 2°46.5 238 14.7 238 11.3
2003-01-24 08:57:23 51°11.742 2°46.467 238 14.6 238.1 11.3
2003-01-24 08:57:28 51°11.73 2°46.441 236.3 14.4 237.1 11.2
2003-01-24 08:57:33 51°11.719 2°46.413 236.8 14.5 237.3 11.2
2003-01-24 08:57:38 51°11.708 2°46.386 236.5 14.6 236.9 11.2
2003-01-24 08:57:43 51°11.697 2°46.359 237.2 14.7 237.1 11.2
2003-01-24 08:57:48 51°11.687 2°46.332 237.2 14.5 237.7 11.2
2003-01-24 08:57:53 51°11.675 2°46.305 236 14.4 236.9 11.1
2003-01-24 08:57:57 51°11.667 2°46.283 237.8 14.7 237.8 11
2003-01-24 08:58:03 51°11.654 2°46.25 238 14.8 238 11
2003-01-24 08:58:08 51°11.643 2°46.222 238.8 14.7 238.5 11.1
2003-01-24 08:58:13 51°11.633 2°46.196 237.5 14.3 238.3 11.1
2003-01-24 08:58:17 51°11.624 2°46.174 237.2 14.5 237.8 10.9
2003-01-24 08:58:23 51°11.611 2°46.141 238.3 14.7 238.4 10.9
2003-01-24 08:58:28 51°11.601 2°46.113 237.8 14.8 238.2 10.9
2003-01-24 08:58:33 51°11.59 2°46.086 238.5 14.7 238.4 10.9
2003-01-24 08:58:38 51°11.58 2°46.059 237.8 14.5 238.3 10.9
2003-01-24 08:58:43 51°11.569 2°46.032 238.2 14.4 238.4 10.8
2003-01-24 08:58:48 51°11.558 2°46.005 237.7 14.5 238 10.7
2003-01-24 08:58:53 51°11.547 2°45.977 238.2 14.6 238.3 10.7
2003-01-24 08:58:58 51°11.536 2°45.951 236.7 14.6 237.3 10.6
2003-01-24 08:59:03 51°11.526 2°45.922 238.5 14.7 238.2 10.5
2003-01-24 08:59:08 51°11.514 2°45.896 237.5 14.6 238 10.5
2003-01-24 08:59:13 51°11.504 2°45.868 238.2 14.6 238.3 10.5
2003-01-24 08:59:18 51°11.493 2°45.842 237 14.4 237.4 10.5
2003-01-24 08:59:23 51°11.483 2°45.814 236.7 14.5 237.3 10.4
2003-01-24 08:59:27 51°11.473 2°45.792 237.7 14.7 237.1 10.4
2003-01-24 08:59:33 51°11.461 2°45.759 238.3 14.6 238.4 10.4
2003-01-24 08:59:38 51°11.45 2°45.733 236.7 14.4 237.6 10.4
2003-01-24 08:59:43 51°11.439 2°45.705 237.5 14.6 237.9 10.3
2003-01-24 08:59:48 51°11.429 2°45.676 239.5 14.7 239.2 10.3
2003-01-24 08:59:53 51°11.42 2°45.648 241.2 14.6 241 10.3
2003-01-24 08:59:57 51°11.413 2°45.625 242.3 14.6 242.3 10.3
2003-01-24 09:00:03 51°11.403 2°45.59 245 14.6 243.9 10.3
2003-01-24 09:00:08 51°11.394 2°45.561 245.2 14.6 245.1 10.3
2003-01-24 09:00:13 51°11.386 2°45.531 246.8 14.6 246.6 10.3
2003-01-24 09:00:17 51°11.379 2°45.508 246.3 14.6 246.1 10.3
2003-01-24 09:00:23 51°11.37 2°45.471 247.3 14.6 247.4 10.3
2003-01-24 09:00:28 51°11.363 2°45.442 248.3 14.6 247.7 10.2
2003-01-24 09:00:33 51°11.355 2°45.411 249 14.6 248.6 10.2
2003-01-24 09:00:37 51°11.349 2°45.387 249.7 14.7 248.8 10.2
2003-01-24 09:00:43 51°11.341 2°45.351 250.7 14.7 249.4 10.3
2003-01-24 09:00:48 51°11.334 2°45.321 250.5 14.6 250.2 10.2
2003-01-24 09:00:53 51°11.328 2°45.29 250.8 14.6 250.4 10.2
2003-01-24 09:00:57 51°11.322 2°45.265 251.7 14.7 250.9 10.2
2003-01-24 09:01:03 51°11.314 2°45.228 251.3 14.7 250.8 10.2
2003-01-24 09:01:08 51°11.308 2°45.197 252 14.7 251.3 10.2
2003-01-24 09:01:13 51°11.301 2°45.166 252 14.7 251.2 10.2
2003-01-24 09:01:18 51°11.294 2°45.136 251.7 14.6 251.1 10.2
2003-01-24 09:01:22 51°11.289 2°45.111 251 14.6 250.8 10.1
2003-01-24 09:01:27 51°11.281 2°45.081 250.7 14.7 249.9 10.2
2003-01-24 09:01:32 51°11.274 2°45.051 249.8 14.7 249.5 10.3
2003-01-24 09:01:38 51°11.266 2°45.014 250.2 14.8 249.7 10.3
2003-01-24 09:01:43 51°11.259 2°44.983 250.2 14.7 249.7 10.3
2003-01-24 09:01:48 51°11.252 2°44.953 250.2 14.6 249.6 10.2
2003-01-24 09:01:53 51°11.245 2°44.923 249.3 14.6 249.3 10.2
2003-01-24 09:01:58 51°11.237 2°44.893 248.8 14.6 248.7 10.1
2003-01-24 09:02:02 51°11.232 2°44.868 249.5 14.7 248.9 10.2
2003-01-24 09:02:08 51°11.222 2°44.833 247.8 14.6 248.2 10.2
2003-01-24 09:02:13 51°11.215 2°44.802 249 14.7 248 10.1
2003-01-24 09:02:17 51°11.209 2°44.778 250 14.8 249.2 10.2
2003-01-24 09:02:23 51°11.201 2°44.742 249.2 14.7 248.8 10.2
2003-01-24 09:02:28 51°11.193 2°44.712 249.5 14.5 249.2 10.1
2003-01-24 09:02:33 51°11.186 2°44.681 249.8 14.7 249.1 10.1
2003-01-24 09:02:37 51°11.181 2°44.656 251.3 14.8 250.4 10.1
2003-01-24 09:02:42 51°11.175 2°44.625 252 14.8 251.4 10.2
2003-01-24 09:02:48 51°11.168 2°44.588 253.3 14.7 252.3 10.3
2003-01-24 09:02:53 51°11.161 2°44.558 252.7 14.6 252 10.3
2003-01-24 09:02:57 51°11.157 2°44.533 252.7 14.6 252.6 10.1
2003-01-24 09:03:03 51°11.149 2°44.496 253.2 14.8 252.1 10.2
2003-01-24 09:03:08 51°11.143 2°44.464 254.2 14.9 253 10.2
2003-01-24 09:03:13 51°11.137 2°44.434 253.7 14.7 253 10.3
2003-01-24 09:03:18 51°11.131 2°44.404 253.3 14.6 252.9 10.2
2003-01-24 09:03:22 51°11.126 2°44.379 253.2 14.6 252.7 10.2
2003-01-24 09:03:27 51°11.12 2°44.347 253.8 14.8 252.9 10.2
2003-01-24 09:03:33 51°11.112 2°44.31 253.3 14.8 252.7 10.3
2003-01-24 09:03:37 51°11.108 2°44.286 253.2 14.7 252.7 10.3
2003-01-24 09:03:43 51°11.1 2°44.248 253.8 14.7 252.6 10.2
2003-01-24 09:03:48 51°11.094 2°44.217 254.3 14.8 253 10.3
2003-01-24 09:03:53 51°11.089 2°44.186 254.8 14.7 253.6 10.3
2003-01-24 09:03:57 51°11.084 2°44.161 252.8 14.6 252.4 10.3
2003-01-24 09:04:02 51°11.078 2°44.13 254 14.7 253.3 10.3
2003-01-24 09:04:08 51°11.071 2°44.092 253.8 14.9 252.8 10.3
2003-01-24 09:04:13 51°11.065 2°44.061 254 14.7 253.4 10.3
2003-01-24 09:04:17 51°11.06 2°44.037 253 14.7 252.9 10.3
2003-01-24 09:04:23 51°11.053 2°43.999 253.7 14.7 253 10.4
2003-01-24 09:04:28 51°11.047 2°43.968 254.3 14.8 253 10.4
2003-01-24 09:04:33 51°11.041 2°43.937 253.8 14.7 253.2 10.4
2003-01-24 09:04:38 51°11.035 2°43.905 254.2 14.7 253.4 10.4
2003-01-24 09:04:42 51°11.031 2°43.88 254.3 14.8 253.4 10.5
2003-01-24 09:04:48 51°11.024 2°43.843 254.5 14.8 254 10.4
2003-01-24 09:04:53 51°11.018 2°43.812 254.2 14.7 253.8 10.4
2003-01-24 09:04:57 51°11.013 2°43.787 254.7 14.7 253.8 10.4
2003-01-24 09:05:03 51°11.006 2°43.75 253.8 14.7 253.3 10.4
2003-01-24 09:05:08 51°11 2°43.719 254.3 14.8 253.2 10.4
2003-01-24 09:05:13 51°10.995 2°43.687 254.7 14.7 253.8 10.4
2003-01-24 09:05:18 51°10.989 2°43.656 253.7 14.6 253.3 10.5
2003-01-24 09:05:23 51°10.983 2°43.625 253.8 14.7 253.4 10.4
2003-01-24 09:05:27 51°10.978 2°43.6 254 14.7 253.4 10.4
2003-01-24 09:05:33 51°10.971 2°43.563 254.8 14.8 254 10.4
2003-01-24 09:05:38 51°10.966 2°43.532 255.2 14.7 253.9 10.4
2003-01-24 09:05:43 51°10.96 2°43.501 254.7 14.6 254.1 10.5
2003-01-24 09:05:47 51°10.956 2°43.476 254 14.6 253.8 10.5
2003-01-24 09:05:53 51°10.949 2°43.438 255.2 14.8 254.1 10.5
2003-01-24 09:05:58 51°10.944 2°43.406 255.5 14.9 254.3 10.6
2003-01-24 09:06:03 51°10.939 2°43.375 255.7 14.7 254.9 10.7
2003-01-24 09:06:08 51°10.933 2°43.344 254.5 14.6 254 10.6
2003-01-24 09:06:13 51°10.927 2°43.313 254.7 14.7 254.3 10.6
2003-01-24 09:06:17 51°10.923 2°43.287 255.3 14.8 254.6 10.5
2003-01-24 09:06:23 51°10.916 2°43.25 255.2 14.8 254.3 10.6
2003-01-24 09:06:28 51°10.911 2°43.219 255.3 14.7 254.5 10.6
2003-01-24 09:06:33 51°10.905 2°43.188 254.3 14.7 253.8 10.6
2003-01-24 09:06:37 51°10.901 2°43.162 255 14.7 254.4 10.6
2003-01-24 09:06:43 51°10.894 2°43.125 254 14.7 253.6 10.6
2003-01-24 09:06:48 51°10.889 2°43.094 254.7 14.7 254.1 10.6
2003-01-24 09:06:53 51°10.883 2°43.064 254.5 14.7 253.9 10.6
2003-01-24 09:06:58 51°10.877 2°43.032 254.2 14.7 253.7 10.6
2003-01-24 09:07:02 51°10.873 2°43.007 254.7 14.8 254.1 10.6
2003-01-24 09:07:08 51°10.866 2°42.969 254.8 14.8 254.1 10.6
2003-01-24 09:07:13 51°10.861 2°42.938 255.3 14.8 254.5 10.6
2003-01-24 09:07:18 51°10.856 2°42.906 255.5 14.7 254.8 10.6
2003-01-24 09:07:22 51°10.851 2°42.882 255.3 14.7 254.7 10.6
2003-01-24 09:07:27 51°10.846 2°42.85 255.5 14.8 254.8 10.6
2003-01-24 09:07:33 51°10.839 2°42.812 256.2 14.9 255.4 10.7
2003-01-24 09:07:38 51°10.834 2°42.78 255.8 14.8 255.2 10.7
2003-01-24 09:07:43 51°10.829 2°42.748 255.7 14.8 255.4 10.6
2003-01-24 09:07:47 51°10.824 2°42.723 255.8 14.8 255.2 10.7
2003-01-24 09:07:53 51°10.818 2°42.686 255 14.8 254.5 10.7
2003-01-24 09:07:57 51°10.813 2°42.66 254.2 14.7 254.1 10.7
2003-01-24 09:08:03 51°10.807 2°42.623 253.8 14.7 253.9 10.7
2003-01-24 09:08:08 51°10.802 2°42.591 253.7 14.8 253.5 10.7
2003-01-24 09:08:13 51°10.796 2°42.56 254.2 14.9 253.6 10.7
2003-01-24 09:08:17 51°10.792 2°42.534 255.2 14.9 254.4 10.7
2003-01-24 09:08:23 51°10.785 2°42.497 254.7 14.7 254.6 10.7
2003-01-24 09:08:28 51°10.78 2°42.466 253.5 14.6 253.7 10.6
2003-01-24 09:08:33 51°10.774 2°42.435 254 14.8 253.4 10.7
2003-01-24 09:08:38 51°10.768 2°42.402 254.5 15 254.1 10.6
2003-01-24 09:08:43 51°10.762 2°42.371 254.5 15 254 10.7
2003-01-24 09:08:48 51°10.757 2°42.339 255.2 14.8 254.5 10.8
2003-01-24 09:08:53 51°10.751 2°42.309 254.7 14.6 254.2 10.7
2003-01-24 09:08:58 51°10.745 2°42.278 253.5 14.6 254 10.7
2003-01-24 09:09:03 51°10.739 2°42.246 253.5 14.8 253.3 10.6
2003-01-24 09:09:08 51°10.733 2°42.214 253.8 14.9 253.4 10.6
2003-01-24 09:09:13 51°10.728 2°42.182 254.8 15.1 254.1 10.7
2003-01-24 09:09:17 51°10.724 2°42.157 256 14.8 255.1 10.8
2003-01-24 09:09:23 51°10.718 2°42.12 256 14.6 255.5 10.8
2003-01-24 09:09:28 51°10.713 2°42.088 256.2 14.6 256 10.8
2003-01-24 09:09:33 51°10.708 2°42.056 256.3 14.8 256 10.8
2003-01-24 09:09:37 51°10.704 2°42.03 257 15 256.2 10.7
2003-01-24 09:09:43 51°10.699 2°41.991 257.8 15 257.1 10.8
2003-01-24 09:09:48 51°10.694 2°41.96 258.3 14.8 257.2 10.9
2003-01-24 09:09:53 51°10.69 2°41.929 258 14.6 257.7 10.8
2003-01-24 09:09:57 51°10.686 2°41.904 257.3 14.5 257.2 10.8
2003-01-24 09:10:03 51°10.68 2°41.865 257.7 14.7 256.9 10.8
2003-01-24 09:10:08 51°10.676 2°41.833 257.8 14.9 257.5 10.8
2003-01-24 09:10:13 51°10.672 2°41.801 258.3 14.9 257.6 10.8
2003-01-24 09:10:17 51°10.668 2°41.775 259.3 14.8 258.3 10.9
2003-01-24 09:10:22 51°10.664 2°41.745 258.2 14.5 257.7 10.9
2003-01-24 09:10:28 51°10.658 2°41.707 257 14.4 256.7 11
2003-01-24 09:10:33 51°10.653 2°41.676 257.2 14.7 256.4 10.9
2003-01-24 09:10:38 51°10.648 2°41.644 257.7 14.8 257.1 10.9
2003-01-24 09:10:43 51°10.643 2°41.612 257.2 14.8 256.6 10.9
2003-01-24 09:10:48 51°10.639 2°41.581 258 14.7 257.3 10.9
2003-01-24 09:10:53 51°10.634 2°41.55 258 14.6 257.4 10.9
2003-01-24 09:10:58 51°10.63 2°41.518 257.2 14.5 257 11
2003-01-24 09:11:03 51°10.625 2°41.487 257 14.6 256.8 10.9
2003-01-24 09:11:08 51°10.621 2°41.454 257.8 14.8 256.9 11
2003-01-24 09:11:13 51°10.616 2°41.423 257.7 14.8 256.9 11
2003-01-24 09:11:17 51°10.613 2°41.397 257.7 14.8 257.1 11.1
2003-01-24 09:11:23 51°10.607 2°41.36 257.7 14.7 257.2 11.1
2003-01-24 09:11:27 51°10.604 2°41.334 258.2 14.6 257.8 11.1
2003-01-24 09:11:33 51°10.598 2°41.296 258.2 14.6 256.9 11
2003-01-24 09:11:38 51°10.595 2°41.265 258.7 14.7 258.1 11
2003-01-24 09:11:42 51°10.591 2°41.239 257.8 14.7 257.4 11.1
2003-01-24 09:11:47 51°10.587 2°41.207 259.2 14.7 258.6 11.1
2003-01-24 09:11:53 51°10.581 2°41.17 259 14.7 258.2 11.1
2003-01-24 09:11:58 51°10.578 2°41.138 259.3 14.7 258.8 11.1
2003-01-24 09:12:02 51°10.574 2°41.113 259 14.6 258.2 11.1
2003-01-24 09:12:08 51°10.569 2°41.075 258.8 14.6 258.1 11.1
2003-01-24 09:12:13 51°10.565 2°41.043 258.8 14.6 257.8 11.1
2003-01-24 09:12:17 51°10.561 2°41.018 258 14.6 257.2 11
2003-01-24 09:12:23 51°10.556 2°40.98 257.8 14.7 257.2 11.1
2003-01-24 09:12:28 51°10.551 2°40.948 257.7 14.7 256.9 11.2
2003-01-24 09:12:33 51°10.548 2°40.916 257.8 14.7 257.7 11.1
2003-01-24 09:12:38 51°10.542 2°40.886 257.5 14.6 256.9 11.2
2003-01-24 09:12:42 51°10.539 2°40.861 258 14.6 257.5 11.2
2003-01-24 09:12:47 51°10.534 2°40.829 257.3 14.6 257.1 11.1
2003-01-24 09:12:53 51°10.528 2°40.791 257.2 14.7 256.8 11.2
2003-01-24 09:12:58 51°10.524 2°40.759 257.8 14.7 257.1 11.2
2003-01-24 09:13:03 51°10.52 2°40.727 258.2 14.8 257.3 11.3
2003-01-24 09:13:08 51°10.515 2°40.695 258 14.7 257.5 11.3
2003-01-24 09:13:13 51°10.511 2°40.664 257.3 14.6 257.3 11.4
2003-01-24 09:13:18 51°10.506 2°40.633 257 14.6 256.8 11.4
2003-01-24 09:13:23 51°10.501 2°40.602 256.5 14.6 256.5 11.3
2003-01-24 09:13:28 51°10.496 2°40.571 256.3 14.6 256.3 11.4
2003-01-24 09:13:33 51°10.491 2°40.539 256.2 14.7 256.1 11.4
2003-01-24 09:13:38 51°10.486 2°40.507 256.5 14.7 256 11.5
2003-01-24 09:13:43 51°10.482 2°40.476 256.3 14.7 256.3 11.6
2003-01-24 09:13:48 51°10.477 2°40.444 257.2 14.7 256.2 11.6
2003-01-24 09:13:53 51°10.472 2°40.413 257 14.6 256.7 11.6
2003-01-24 09:13:57 51°10.469 2°40.388 257.3 14.6 257.2 11.7
2003-01-24 09:14:03 51°10.464 2°40.35 257.5 14.6 257 11.7
2003-01-24 09:14:08 51°10.459 2°40.318 257.3 14.7 257 11.8
2003-01-24 09:14:13 51°10.455 2°40.286 257.8 14.7 257.4 11.8
2003-01-24 09:14:17 51°10.451 2°40.261 257.3 14.7 257.2 11.8
2003-01-24 09:14:23 51°10.446 2°40.223 257.7 14.7 257.2 11.9
2003-01-24 09:14:28 51°10.441 2°40.192 257.2 14.7 257.3 11.9
2003-01-24 09:14:33 51°10.437 2°40.16 257.7 14.7 257.6 11.9
2003-01-24 09:14:38 51°10.432 2°40.128 256.8 14.7 257 12
2003-01-24 09:14:43 51°10.428 2°40.096 258 14.8 258 12
2003-01-24 09:14:47 51°10.424 2°40.071 257.5 14.8 257.5 12.1
2003-01-24 09:14:53 51°10.419 2°40.033 257.8 14.7 257.7 12.1
2003-01-24 09:14:58 51°10.415 2°40.001 257.8 14.7 257.6 12.1
2003-01-24 09:15:03 51°10.41 2°39.969 257.3 14.7 257.4 12.2
2003-01-24 09:15:08 51°10.406 2°39.937 257 14.7 257.4 12.2
2003-01-24 09:15:13 51°10.401 2°39.906 257 14.7 257.1 12.3
2003-01-24 09:15:17 51°10.398 2°39.88 257 14.7 257.1 12.3
2003-01-24 09:15:23 51°10.392 2°39.842 257.2 14.7 257.1 12.4
2003-01-24 09:15:28 51°10.388 2°39.811 256.8 14.7 256.9 12.4
2003-01-24 09:15:33 51°10.383 2°39.779 256.7 14.7 256.7 12.4
2003-01-24 09:15:37 51°10.379 2°39.754 256.3 14.8 256.5 12.5
2003-01-24 09:15:43 51°10.374 2°39.716 256.7 14.8 257 12.6
2003-01-24 09:15:48 51°10.369 2°39.684 256.5 14.7 256.3 12.7
2003-01-24 09:15:53 51°10.364 2°39.652 256.8 14.8 256.6 12.7
2003-01-24 09:15:58 51°10.36 2°39.62 257.8 14.7 257.4 12.7
2003-01-24 09:16:02 51°10.356 2°39.595 256.7 14.7 256.6 12.8
2003-01-24 09:16:08 51°10.351 2°39.557 257.7 14.7 257.3 12.9
2003-01-24 09:16:13 51°10.346 2°39.526 256.5 14.7 256.6 13
2003-01-24 09:16:18 51°10.342 2°39.494 257.7 14.7 257.5 13
2003-01-24 09:16:22 51°10.338 2°39.469 256.8 14.7 256.7 13.1
2003-01-24 09:16:27 51°10.333 2°39.437 256.5 14.7 256.4 13.1
2003-01-24 09:16:33 51°10.327 2°39.399 256.2 14.7 255.7 13.3
2003-01-24 09:16:37 51°10.323 2°39.374 256 14.7 255.6 13.4
2003-01-24 09:16:42 51°10.318 2°39.342 256.8 14.8 255.9 13.6
2003-01-24 09:16:48 51°10.312 2°39.305 256.8 14.8 255.9 13.6
2003-01-24 09:16:53 51°10.307 2°39.273 256.3 14.8 255.7 13.5
2003-01-24 09:16:57 51°10.303 2°39.247 257.8 14.8 256.6 13.5
2003-01-24 09:17:03 51°10.298 2°39.209 257.3 14.8 256.8 13.5
2003-01-24 09:17:08 51°10.293 2°39.177 257.8 14.8 256.9 13.8
2003-01-24 09:17:13 51°10.288 2°39.146 257.5 14.8 257 13.7
2003-01-24 09:17:17 51°10.285 2°39.12 257.7 14.8 257.4 13.9
2003-01-24 09:17:23 51°10.279 2°39.082 257.2 14.8 256.7 14
2003-01-24 09:17:28 51°10.275 2°39.05 257.2 14.8 257 13.9
2003-01-24 09:17:33 51°10.27 2°39.019 257.3 14.8 256.8 13.8
2003-01-24 09:17:38 51°10.265 2°38.987 257.2 14.8 256.5 13.8
2003-01-24 09:17:43 51°10.261 2°38.955 258.2 14.8 257.4 13.9
2003-01-24 09:17:47 51°10.257 2°38.93 257.2 14.8 256.5 13.9
2003-01-24 09:17:53 51°10.252 2°38.891 258.2 14.8 257.9 14.1
2003-01-24 09:17:58 51°10.247 2°38.859 257.7 14.8 257.1 14
2003-01-24 09:18:03 51°10.243 2°38.828 257.5 14.8 257.3 13.9
2003-01-24 09:18:07 51°10.239 2°38.802 257.7 14.8 257.1 14
2003-01-24 09:18:13 51°10.233 2°38.764 257 14.8 256.9 14.1
2003-01-24 09:18:18 51°10.229 2°38.732 257.7 14.9 256.9 14.3
2003-01-24 09:18:23 51°10.224 2°38.7 257.5 14.8 257.2 14.5
2003-01-24 09:18:28 51°10.219 2°38.669 256.2 14.7 256.5 14.3
2003-01-24 09:18:33 51°10.214 2°38.637 257 14.8 256.4 14.4
2003-01-24 09:18:38 51°10.209 2°38.605 256.2 14.8 256 14.4
2003-01-24 09:18:43 51°10.204 2°38.574 255.7 14.8 255.7 14.3
2003-01-24 09:18:47 51°10.2 2°38.548 256 14.8 255.7 14.2
2003-01-24 09:18:53 51°10.194 2°38.51 255.8 14.8 255.4 14.3
2003-01-24 09:18:58 51°10.187 2°38.48 255.2 14.7 255.3 14.8
2003-01-24 09:19:03 51°10.181 2°38.448 255 14.8 254.8 14.8
2003-01-24 09:19:07 51°10.178 2°38.422 256.7 14.9 256.2 14.7
2003-01-24 09:19:13 51°10.171 2°38.385 254.8 14.9 254.6 14.6
2003-01-24 09:19:18 51°10.167 2°38.352 256.5 14.8 256.5 14.3
2003-01-24 09:19:23 51°10.161 2°38.321 256 14.8 255.4 14.3
2003-01-24 09:19:27 51°10.158 2°38.295 256.7 14.8 256.2 14.6
2003-01-24 09:19:33 51°10.152 2°38.258 256 14.7 255.9 14.7
2003-01-24 09:19:38 51°10.146 2°38.226 255.8 14.8 255.2 14.6
2003-01-24 09:19:43 51°10.142 2°38.193 257.2 14.9 256.2 14.9
2003-01-24 09:19:47 51°10.138 2°38.168 256.2 14.9 255.6 15.2
2003-01-24 09:19:53 51°10.133 2°38.13 256.7 14.8 256.4 15.3
2003-01-24 09:19:58 51°10.127 2°38.099 256.3 14.8 255.6 15.2
2003-01-24 09:20:03 51°10.122 2°38.067 256.8 14.8 256.4 14.9
2003-01-24 09:20:08 51°10.117 2°38.035 256.2 14.8 255.8 15.4
2003-01-24 09:20:13 51°10.112 2°38.003 256.5 14.9 255.9 15.3
2003-01-24 09:20:18 51°10.107 2°37.971 256.7 14.8 256.2 15.5
2003-01-24 09:20:23 51°10.102 2°37.94 256.3 14.8 255.7 15.5
2003-01-24 09:20:27 51°10.098 2°37.914 256.5 14.8 255.9 15.5
2003-01-24 09:20:33 51°10.092 2°37.876 256.8 14.8 256.3 15.5
2003-01-24 09:20:38 51°10.087 2°37.844 256.5 14.8 256.2 15.6
2003-01-24 09:20:43 51°10.082 2°37.813 256.3 14.8 256.2 15.6
2003-01-24 09:20:48 51°10.077 2°37.781 256.5 14.9 255.8 15.7
2003-01-24 09:20:53 51°10.073 2°37.749 257.3 14.9 256.5 15.7
2003-01-24 09:20:57 51°10.068 2°37.724 256.7 14.8 256.1 15.8
2003-01-24 09:21:03 51°10.063 2°37.686 256.8 14.7 256.4 15.8
2003-01-24 09:21:07 51°10.059 2°37.66 256.7 14.9 256.2 15.8
2003-01-24 09:21:13 51°10.053 2°37.622 257.3 14.9 256.4 15.9
2003-01-24 09:21:18 51°10.049 2°37.59 257.7 14.8 256.8 16
2003-01-24 09:21:23 51°10.043 2°37.559 256.7 14.7 256.6 15.9
2003-01-24 09:21:28 51°10.039 2°37.526 257.3 14.8 256 16
2003-01-24 09:21:33 51°10.034 2°37.495 256.8 14.8 256.3 16
2003-01-24 09:21:37 51°10.03 2°37.47 256.8 14.7 256.5 16
2003-01-24 09:21:43 51°10.024 2°37.431 257.2 14.9 256.1 16
2003-01-24 09:21:48 51°10.019 2°37.4 256.7 14.9 256.2 16.1
2003-01-24 09:21:53 51°10.014 2°37.368 256 14.8 256.1 16.2
2003-01-24 09:21:58 51°10.008 2°37.337 255.8 14.9 255.3 16.2
2003-01-24 09:22:03 51°10.004 2°37.305 256.8 14.8 256.2 16.2
2003-01-24 09:22:08 51°9.997 2°37.274 255.8 14.7 255.7 16.1
2003-01-24 09:22:13 51°9.993 2°37.242 256.3 14.8 256 16.1
2003-01-24 09:22:17 51°9.988 2°37.217 256.5 14.9 255.8 16
2003-01-24 09:22:22 51°9.984 2°37.185 256.7 14.8 256.4 16.1
2003-01-24 09:22:28 51°9.977 2°37.148 256 14.7 255.4 16
2003-01-24 09:22:33 51°9.973 2°37.116 256.3 14.7 256.1 15.9
2003-01-24 09:22:37 51°9.968 2°37.091 255.8 14.7 255.4 16
2003-01-24 09:22:43 51°9.963 2°37.052 256.3 14.8 255.9 16.1
2003-01-24 09:22:48 51°9.958 2°37.02 257 14.9 256.3 16.3
2003-01-24 09:22:53 51°9.953 2°36.989 256.8 14.8 256.6 16.2
2003-01-24 09:22:58 51°9.948 2°36.958 257.3 14.7 257 16.4
2003-01-24 09:23:03 51°9.944 2°36.927 258.5 14.5 257.7 16.2
2003-01-24 09:23:07 51°9.942 2°36.903 260 14.1 259.4 16.2
2003-01-24 09:23:13 51°9.938 2°36.867 261.3 13.9 260.2 16.3
2003-01-24 09:23:18 51°9.936 2°36.837 264.3 13.6 263 16.3
2003-01-24 09:23:23 51°9.935 2°36.807 266 13.4 264.2 16.4
2003-01-24 09:23:28 51°9.934 2°36.778 267.2 13.3 265.5 16.3
2003-01-24 09:23:33 51°9.933 2°36.75 268.8 13.1 267.1 16.5
2003-01-24 09:23:38 51°9.933 2°36.721 270 13.1 268.6 16.4
2003-01-24 09:23:42 51°9.933 2°36.698 272.2 13 270.1 16.1
2003-01-24 09:23:48 51°9.934 2°36.663 274.7 13 272.2 16.5
2003-01-24 09:23:53 51°9.936 2°36.635 276 13 273.6 16.4
2003-01-24 09:23:57 51°9.937 2°36.612 277.7 13 275 16.3
2003-01-24 09:24:03 51°9.94 2°36.578 278 12.9 275.8 16.5
2003-01-24 09:24:07 51°9.942 2°36.556 277.7 12.9 276 16.4
2003-01-24 09:24:13 51°9.945 2°36.522 277.7 12.9 276 16.5
2003-01-24 09:24:18 51°9.947 2°36.493 277.7 12.9 275.9 16.2
2003-01-24 09:24:23 51°9.949 2°36.465 278.7 12.9 276 16.4
2003-01-24 09:24:27 51°9.951 2°36.443 278.8 12.9 277.1 16.4
2003-01-24 09:24:33 51°9.953 2°36.409 278.8 12.9 276.6 16.4
2003-01-24 09:24:37 51°9.954 2°36.386 278.2 12.9 276.5 16.3
2003-01-24 09:24:43 51°9.957 2°36.352 278 12.9 276.6 16.3
2003-01-24 09:24:47 51°9.959 2°36.33 278.3 12.9 276.8 16.4
2003-01-24 09:24:53 51°9.962 2°36.296 280 12.9 277.8 16.5
2003-01-24 09:24:58 51°9.966 2°36.269 283.3 12.8 280.4 16.5
2003-01-24 09:25:03 51°9.97 2°36.241 286.7 12.8 282.6 16.6
2003-01-24 09:25:07 51°9.975 2°36.22 291.2 12.8 287.3 16.6
2003-01-24 09:25:13 51°9.983 2°36.188 294.7 13 290.5 16.6
2003-01-24 09:25:18 51°9.99 2°36.161 297 13.2 293.3 16.7
2003-01-24 09:25:23 51°9.998 2°36.134 297.5 13.4 294 16.6
2003-01-24 09:25:28 51°10.006 2°36.106 298.3 13.6 295 16.5
2003-01-24 09:25:33 51°10.014 2°36.079 299.8 13.7 295.4 16.4
2003-01-24 09:25:37 51°10.021 2°36.058 299.7 13.8 296.3 16.3
2003-01-24 09:25:43 51°10.031 2°36.025 300.8 13.8 297.1 16.1
2003-01-24 09:25:47 51°10.039 2°36.004 304.3 13.9 300.1 16
2003-01-24 09:25:53 51°10.053 2°35.974 308.7 13.9 303.9 15.6
2003-01-24 09:25:58 51°10.065 2°35.95 312 14 307.3 15.2
2003-01-24 09:26:03 51°10.078 2°35.928 315.2 14.1 309.1 14.8
2003-01-24 09:26:08 51°10.091 2°35.905 318.5 14.1 313.5 14.2
2003-01-24 09:26:13 51°10.106 2°35.885 321.3 14.1 316.7 13.4
2003-01-24 09:26:18 51°10.121 2°35.865 324.7 14.1 319.1 12.3
2003-01-24 09:26:23 51°10.137 2°35.847 327.7 14.1 321.5 11.8
2003-01-24 09:26:27 51°10.149 2°35.834 330.8 14 325.3 10.6
2003-01-24 09:26:33 51°10.169 2°35.814 333.3 13.9 327.7 9.9
2003-01-24 09:26:37 51°10.182 2°35.803 336.5 13.8 330.7 9.3
2003-01-24 09:26:43 51°10.203 2°35.788 340.2 13.7 333.4 9.2
2003-01-24 09:26:47 51°10.217 2°35.78 343.5 13.5 337.5 9.1
2003-01-24 09:26:53 51°10.238 2°35.769 347 13.4 341.1 9.3
2003-01-24 09:26:58 51°10.256 2°35.762 350.8 13.3 344.1 9
2003-01-24 09:27:03 51°10.275 2°35.758 354.8 13.4 348.9 9.1
2003-01-24 09:27:07 51°10.289 2°35.756 358.8 13.4 353 9.2
2003-01-24 09:27:13 51°10.312 2°35.755 2.8 13.4 356.2 9.1
2003-01-24 09:27:18 51°10.33 2°35.757 7 13.4 0.4 9.5
2003-01-24 09:27:23 51°10.348 2°35.761 11 13.4 4.6 9.3
2003-01-24 09:27:28 51°10.367 2°35.767 14.8 13.4 8 9.5
2003-01-24 09:27:33 51°10.384 2°35.775 19.2 13.4 14 9.6
2003-01-24 09:27:38 51°10.402 2°35.786 23.8 13.4 17.3 9.4
2003-01-24 09:27:42 51°10.415 2°35.795 26.8 13.4 21.8 9.6
2003-01-24 09:27:48 51°10.435 2°35.81 28.3 13.4 23.8 9.4
2003-01-24 09:27:53 51°10.452 2°35.823 29.3 13.4 24.8 9.3
2003-01-24 09:27:57 51°10.466 2°35.833 29.7 13.4 25.3 9.3
2003-01-24 09:28:03 51°10.486 2°35.848 29.7 13.4 25.3 9.3
2003-01-24 09:28:08 51°10.503 2°35.86 29.3 13.4 25.4 9.1
2003-01-24 09:28:13 51°10.52 2°35.873 28.7 13.4 24.9 9.1
2003-01-24 09:28:17 51°10.533 2°35.883 29.3 13.5 25.2 9.1
2003-01-24 09:28:23 51°10.553 2°35.899 30.7 13.4 25.8 9.1
2003-01-24 09:28:28 51°10.569 2°35.913 31.8 13.4 27.5 9
2003-01-24 09:28:33 51°10.586 2°35.928 32.3 13.4 28.5 9.1
2003-01-24 09:28:37 51°10.599 2°35.939 32.2 13.5 28.2 8.9
2003-01-24 09:28:43 51°10.619 2°35.955 31.8 13.5 28 9
2003-01-24 09:28:48 51°10.636 2°35.969 31.3 13.5 27.7 9.4
2003-01-24 09:28:53 51°10.653 2°35.982 31 13.5 26.9 9
2003-01-24 09:28:57 51°10.666 2°35.992 30.7 13.6 26.1 9.3
2003-01-24 09:29:03 51°10.687 2°36.008 30.5 13.7 25.8 9.2
2003-01-24 09:29:07 51°10.701 2°36.019 30 13.7 25.6 9.3
2003-01-24 09:29:13 51°10.721 2°36.034 29.8 13.7 25.4 9.4
2003-01-24 09:29:18 51°10.738 2°36.047 30.2 13.6 25.4 9.5
2003-01-24 09:29:23 51°10.755 2°36.06 30.3 13.6 25.5 9.4
2003-01-24 09:29:27 51°10.769 2°36.071 30.8 13.7 26.1 9.6
2003-01-24 09:29:33 51°10.789 2°36.087 31 13.7 26.4 9.4
2003-01-24 09:29:38 51°10.806 2°36.101 31.3 13.7 26.6 9.6
2003-01-24 09:29:43 51°10.822 2°36.115 31.7 13.7 27.2 9.5
2003-01-24 09:29:46 51°10.833 2°36.123 32.2 13.7 27.3 9.5
2003-01-24 09:29:53 51°10.856 2°36.143 32 13.7 27.6 9.7
2003-01-24 09:29:57 51°10.87 2°36.155 32 13.7 27.9 9.8
2003-01-24 09:30:03 51°10.89 2°36.172 32.5 13.7 28 9.7
2003-01-24 09:30:08 51°10.907 2°36.186 32.7 13.8 28.2 9.7
2003-01-24 09:30:13 51°10.923 2°36.201 32.8 13.7 28.3 9.8
2003-01-24 09:30:17 51°10.937 2°36.212 32.7 13.8 28.1 9.8
2003-01-24 09:30:23 51°10.957 2°36.229 32.2 13.8 28 9.9
2003-01-24 09:30:27 51°10.971 2°36.241 32.2 13.8 28 9.8
2003-01-24 09:30:33 51°10.991 2°36.258 32.8 13.7 28 10
2003-01-24 09:30:38 51°11.007 2°36.272 32.5 13.7 28 9.8
2003-01-24 09:30:43 51°11.024 2°36.287 32.8 13.7 28.5 9.8
2003-01-24 09:30:48 51°11.041 2°36.301 32.8 13.7 28.4 9.8
2003-01-24 09:30:53 51°11.058 2°36.316 32.8 13.8 28.4 9.8
2003-01-24 09:30:58 51°11.074 2°36.33 32.8 13.7 28.6 10
2003-01-24 09:31:03 51°11.091 2°36.344 32.8 13.7 28.5 10.2
2003-01-24 09:31:07 51°11.104 2°36.356 32.7 13.7 28.6 9.9
2003-01-24 09:31:13 51°11.124 2°36.373 32.3 13.7 28.3 9.9
2003-01-24 09:31:17 51°11.138 2°36.384 32 13.7 27.8 10.1
2003-01-24 09:31:23 51°11.158 2°36.401 32 13.7 27.9 9.9
2003-01-24 09:31:28 51°11.175 2°36.415 31.8 13.6 27.4 10.1
2003-01-24 09:31:33 51°11.192 2°36.429 32.2 13.6 27.6 10.1
2003-01-24 09:31:38 51°11.208 2°36.443 32.3 13.6 27.7 10.1
2003-01-24 09:31:43 51°11.225 2°36.457 32.5 13.7 27.8 10.2
2003-01-24 09:31:48 51°11.242 2°36.471 32.3 13.7 27.8 10.2
2003-01-24 09:31:53 51°11.258 2°36.485 32.5 13.6 28 10.2
2003-01-24 09:31:58 51°11.275 2°36.499 32.3 13.6 27.5 10
2003-01-24 09:32:03 51°11.291 2°36.513 32 13.6 27.7 10.1
2003-01-24 09:32:08 51°11.308 2°36.527 32 13.6 27.2 10.1
2003-01-24 09:32:13 51°11.325 2°36.54 31.7 13.6 27 10.1
2003-01-24 09:32:17 51°11.339 2°36.551 31.3 13.6 26.9 10.1
2003-01-24 09:32:23 51°11.358 2°36.567 31.5 13.6 26.8 10.1
2003-01-24 09:32:28 51°11.375 2°36.581 31.8 13.6 27.3 10.1
2003-01-24 09:32:33 51°11.392 2°36.595 31.7 13.6 27.1 9.9
2003-01-24 09:32:37 51°11.405 2°36.606 32.7 13.5 27.8 10
2003-01-24 09:32:43 51°11.425 2°36.623 32.7 13.5 27.9 10
2003-01-24 09:32:47 51°11.438 2°36.634 32.7 13.5 28.1 9.9
2003-01-24 09:32:53 51°11.458 2°36.651 33.7 13.5 28.5 10
2003-01-24 09:32:58 51°11.475 2°36.666 34.2 13.5 29.1 9.9
2003-01-24 09:33:03 51°11.491 2°36.681 34.8 13.5 29.8 10
2003-01-24 09:33:07 51°11.503 2°36.693 35 13.5 30.4 9.8
2003-01-24 09:33:13 51°11.523 2°36.712 35.5 13.5 30.7 9.9
2003-01-24 09:33:17 51°11.535 2°36.724 36.3 13.5 31.1 9.9
2003-01-24 09:33:23 51°11.555 2°36.742 36 13.5 31.1 10
2003-01-24 09:33:27 51°11.567 2°36.755 36.3 13.5 31.5 10
2003-01-24 09:33:33 51°11.586 2°36.773 36.3 13.5 31.5 10
2003-01-24 09:33:38 51°11.602 2°36.789 36.3 13.5 31.7 10
2003-01-24 09:33:42 51°11.615 2°36.801 36.7 13.4 31.4 10
2003-01-24 09:33:47 51°11.631 2°36.817 36.7 13.4 31.4 10
2003-01-24 09:33:53 51°11.65 2°36.835 35.8 13.5 31.1 9.8
2003-01-24 09:33:57 51°11.663 2°36.848 35.5 13.5 31 9.9
2003-01-24 09:34:03 51°11.682 2°36.866 36 13.5 30.7 9.9
2003-01-24 09:34:07 51°11.695 2°36.878 36 13.5 31.1 9.7
2003-01-24 09:34:13 51°11.714 2°36.896 35.8 13.5 30.6 9.8
2003-01-24 09:34:17 51°11.727 2°36.909 35.8 13.5 31.3 9.9
2003-01-24 09:34:23 51°11.746 2°36.928 36 13.5 31.2 9.9
2003-01-24 09:34:28 51°11.762 2°36.943 36.7 13.4 31.5 9.8
2003-01-24 09:34:33 51°11.777 2°36.959 36.5 13.4 31.9 10
2003-01-24 09:34:38 51°11.793 2°36.974 36.5 13.5 31.5 9.9
2003-01-24 09:34:43 51°11.809 2°36.99 36.2 13.5 31.2 10
2003-01-24 09:34:48 51°11.825 2°37.005 36 13.5 31 10
2003-01-24 09:34:53 51°11.841 2°37.02 35.7 13.5 30.8 10
2003-01-24 09:34:58 51°11.858 2°37.035 35.8 13.5 30.7 10
2003-01-24 09:35:03 51°11.874 2°37.051 35.5 13.5 31 9.7
2003-01-24 09:35:07 51°11.886 2°37.063 35.8 13.4 30.7 9.9
2003-01-24 09:35:13 51°11.905 2°37.081 35.8 13.4 31 9.9
2003-01-24 09:35:17 51°11.919 2°37.093 35.7 13.5 30.6 9.8
2003-01-24 09:35:22 51°11.935 2°37.108 35.5 13.6 30.6 9.8
2003-01-24 09:35:27 51°11.951 2°37.124 35.5 13.6 30.5 9.8
2003-01-24 09:35:33 51°11.97 2°37.141 35.7 13.5 30.3 9.9
2003-01-24 09:35:38 51°11.987 2°37.156 34.5 13.5 29.8 9.9
2003-01-24 09:35:42 51°12 2°37.166 31.8 13.4 26.9 9.8
2003-01-24 09:35:48 51°12.021 2°37.18 29.2 13.5 24.2 9.7
2003-01-24 09:35:53 51°12.038 2°37.191 27.2 13.5 22.3 9.9
2003-01-24 09:35:58 51°12.055 2°37.202 28.2 13.5 22.1 9.8
2003-01-24 09:36:03 51°12.073 2°37.214 27.8 13.5 22.6 9.9
2003-01-24 09:36:08 51°12.09 2°37.225 27 13.6 21.7 9.8
2003-01-24 09:36:13 51°12.108 2°37.236 27.7 13.5 22.2 9.8
2003-01-24 09:36:17 51°12.121 2°37.245 27.3 13.5 21.9 9.7
2003-01-24 09:36:23 51°12.143 2°37.258 27.2 13.5 21.6 9.7
2003-01-24 09:36:28 51°12.16 2°37.268 26.8 13.5 20.9 9.5
2003-01-24 09:36:33 51°12.177 2°37.28 27.3 13.5 21.8 9.7
2003-01-24 09:36:37 51°12.191 2°37.289 28 13.6 22.6 9.7
2003-01-24 09:36:43 51°12.212 2°37.303 28.2 13.5 22.6 9.7
2003-01-24 09:36:47 51°12.226 2°37.313 28.3 13.5 23.2 9.6
2003-01-24 09:36:53 51°12.247 2°37.326 28.2 13.5 22.6 9.7
2003-01-24 09:36:58 51°12.264 2°37.338 28.8 13.5 22.9 9.7
2003-01-24 09:37:03 51°12.281 2°37.35 27.8 13.5 22.7 9.6
2003-01-24 09:37:08 51°12.299 2°37.361 27.3 13.6 21.8 9.7
2003-01-24 09:37:13 51°12.316 2°37.372 27.7 13.6 22.1 9.8
2003-01-24 09:37:17 51°12.33 2°37.382 27.7 13.6 22.8 9.7
2003-01-24 09:37:23 51°12.351 2°37.395 27.8 13.5 22.2 9.6
2003-01-24 09:37:28 51°12.368 2°37.407 28 13.6 23 9.7
2003-01-24 09:37:33 51°12.386 2°37.419 28.3 13.6 22.7 9.7
2003-01-24 09:37:38 51°12.403 2°37.43 28.5 13.6 22.7 9.9
2003-01-24 09:37:43 51°12.42 2°37.442 28.7 13.6 22.9 10
2003-01-24 09:37:48 51°12.438 2°37.454 28.5 13.6 23.3 9.9
2003-01-24 09:37:53 51°12.455 2°37.465 28 13.6 22.7 9.9
2003-01-24 09:37:57 51°12.469 2°37.476 28 13.7 23.1 10
2003-01-24 09:38:02 51°12.487 2°37.487 28.3 13.7 22.7 10.1
2003-01-24 09:38:08 51°12.507 2°37.501 27.8 13.7 23.1 10.1
2003-01-24 09:38:13 51°12.525 2°37.512 27 13.7 22.4 10.1
2003-01-24 09:38:17 51°12.539 2°37.522 28.7 13.7 23 10
2003-01-24 09:38:23 51°12.559 2°37.537 29.2 13.7 24 10.1
2003-01-24 09:38:28 51°12.577 2°37.548 28.7 13.7 23.5 10.1
2003-01-24 09:38:33 51°12.594 2°37.561 29 13.6 23.9 10.3
2003-01-24 09:38:38 51°12.612 2°37.572 28.5 13.6 23.1 10.3
2003-01-24 09:38:43 51°12.629 2°37.584 28.7 13.6 23.4 10.4
2003-01-24 09:38:48 51°12.646 2°37.596 28.8 13.7 23.3 10.5
2003-01-24 09:38:53 51°12.664 2°37.608 29.2 13.6 23.1 10.5
2003-01-24 09:38:57 51°12.678 2°37.617 28 13.7 22.9 10.5
2003-01-24 09:39:03 51°12.699 2°37.632 28.2 13.7 22.8 10.6
2003-01-24 09:39:08 51°12.716 2°37.643 28.5 13.7 22.8 10.6
2003-01-24 09:39:13 51°12.733 2°37.655 29.2 13.7 23.2 10.8
2003-01-24 09:39:18 51°12.751 2°37.667 28.3 13.7 23.2 10.7
2003-01-24 09:39:23 51°12.769 2°37.678 28.2 13.7 22.5 10.7
2003-01-24 09:39:27 51°12.783 2°37.688 28.8 13.7 22.9 10.9
2003-01-24 09:39:33 51°12.803 2°37.703 29.3 13.7 23.4 10.8
2003-01-24 09:39:38 51°12.821 2°37.714 28.5 13.7 23.5 10.7
2003-01-24 09:39:43 51°12.838 2°37.727 29.5 13.7 23.4 10.8
2003-01-24 09:39:48 51°12.855 2°37.739 30.2 13.7 24 10.9
2003-01-24 09:39:53 51°12.873 2°37.751 28.5 13.7 24 10.8
2003-01-24 09:39:57 51°12.887 2°37.761 29.5 13.6 23.9 11
2003-01-24 09:40:03 51°12.906 2°37.778 33.2 13.6 26.1 10.9
2003-01-24 09:40:08 51°12.922 2°37.794 35.7 13.5 30 11.2
2003-01-24 09:40:13 51°12.938 2°37.809 36.7 13.5 31.3 11.1
2003-01-24 09:40:17 51°12.951 2°37.822 37.7 13.6 32.2 11.3
2003-01-24 09:40:23 51°12.97 2°37.842 39 13.5 33.2 11.2
2003-01-24 09:40:27 51°12.982 2°37.855 39.2 13.5 33.6 11.4
2003-01-24 09:40:33 51°13.001 2°37.876 38.7 13.5 34 11.3
2003-01-24 09:40:37 51°13.014 2°37.888 38.5 13.6 33 11.5
2003-01-24 09:40:43 51°13.032 2°37.908 38.3 13.5 33.6 11.6
2003-01-24 09:40:48 51°13.048 2°37.924 38.3 13.5 32.6 11.7